createdAt,value
2022-09-12T00:00:35.315Z,1015.74
2022-09-12T00:04:35.662Z,1015.67
2022-09-12T00:08:35.420Z,1015.69
2022-09-12T00:12:35.832Z,1015.64
2022-09-12T00:16:36.014Z,1015.68
2022-09-12T00:20:35.890Z,1015.61
2022-09-12T00:24:35.575Z,1015.52
2022-09-12T00:28:35.524Z,1015.59
2022-09-12T00:32:35.360Z,1015.6
2022-09-12T00:36:35.867Z,1015.45
2022-09-12T00:40:35.163Z,1015.52
2022-09-12T00:44:35.518Z,1015.46
2022-09-12T00:48:35.235Z,1015.48
2022-09-12T00:52:35.917Z,1015.48
2022-09-12T00:56:35.896Z,1015.49
2022-09-12T01:00:37.994Z,1015.47
2022-09-12T01:04:35.717Z,1015.46
2022-09-12T01:08:36.034Z,1015.4
2022-09-12T01:12:35.533Z,1015.5
2022-09-12T01:16:36.026Z,1015.29
2022-09-12T01:20:35.706Z,1015.35
2022-09-12T01:24:35.156Z,1015.16
2022-09-12T01:28:35.841Z,1015.36
2022-09-12T01:32:36.018Z,1015.32
2022-09-12T01:36:35.714Z,1015.3
2022-09-12T01:40:35.595Z,1015.09
2022-09-12T01:44:35.464Z,1015.1
2022-09-12T01:48:35.809Z,1015.1
2022-09-12T01:52:35.310Z,1015.07
2022-09-12T01:56:35.299Z,1015.02
2022-09-12T02:00:38.605Z,1015.03
2022-09-12T02:04:35.918Z,1014.91
2022-09-12T02:08:35.595Z,1014.92
2022-09-12T02:12:35.102Z,1014.89
2022-09-12T02:16:35.775Z,1014.81
2022-09-12T02:21:00.330Z,1014.78
2022-09-12T02:24:35.988Z,1014.7
2022-09-12T02:28:35.395Z,1014.64
2022-09-12T02:32:35.566Z,1014.62
2022-09-12T02:36:35.491Z,1014.66
2022-09-12T02:40:35.876Z,1014.65
2022-09-12T02:44:35.870Z,1014.66
2022-09-12T02:48:36.187Z,1014.67
2022-09-12T02:52:36.006Z,1014.54
2022-09-12T02:56:35.966Z,1014.62
2022-09-12T03:00:35.531Z,1014.57
2022-09-12T03:04:35.225Z,1014.56
2022-09-12T03:08:35.889Z,1014.5
2022-09-12T03:12:35.736Z,1014.41
2022-09-12T03:16:35.207Z,1014.34
2022-09-12T03:20:35.683Z,1014.38
2022-09-12T03:24:35.179Z,1014.35
2022-09-12T03:28:35.850Z,1014.38
2022-09-12T03:32:34.925Z,1014.33
2022-09-12T03:36:35.588Z,1014.29
2022-09-12T03:40:35.435Z,1014.27
2022-09-12T03:44:35.602Z,1014.26
2022-09-12T03:48:35.122Z,1014.24
2022-09-12T03:52:35.538Z,1014.18
2022-09-12T03:56:35.318Z,1014.25
2022-09-12T04:00:42.439Z,1014.32
2022-09-12T04:04:35.312Z,1014.23
2022-09-12T04:08:35.049Z,1014.24
2022-09-12T04:12:35.805Z,1014.24
2022-09-12T04:16:35.536Z,1014.19
2022-09-12T04:20:35.506Z,1014.23
2022-09-12T04:24:35.663Z,1014.31
2022-09-12T04:28:35.649Z,1014.09
2022-09-12T04:32:35.095Z,1014.15
2022-09-12T04:36:35.172Z,1014.15
2022-09-12T04:40:35.929Z,1014.14
2022-09-12T04:44:35.471Z,1014.11
2022-09-12T04:48:35.953Z,1014.23
2022-09-12T04:52:35.721Z,1014.07
2022-09-12T04:56:35.192Z,1014.15
2022-09-12T05:00:41.344Z,1014.15
2022-09-12T05:04:35.786Z,1014.2
2022-09-12T05:08:35.393Z,1014.13
2022-09-12T05:12:39.216Z,1014.08
2022-09-12T05:16:36.193Z,1014.06
2022-09-12T05:20:35.866Z,1014.05
2022-09-12T05:24:35.451Z,1014.03
2022-09-12T05:28:35.668Z,1013.83
2022-09-12T05:32:35.399Z,1013.77
2022-09-12T05:36:35.865Z,1013.9
2022-09-12T05:40:35.399Z,1014.05
2022-09-12T05:44:35.168Z,1013.91
2022-09-12T05:48:35.701Z,1014.02
2022-09-12T05:52:35.870Z,1013.97
2022-09-12T05:56:35.355Z,1014.09
2022-09-12T06:00:44.106Z,1013.98
2022-09-12T06:04:35.670Z,1013.97
2022-09-12T06:08:35.767Z,1013.97
2022-09-12T06:12:35.370Z,1013.92
2022-09-12T06:16:35.917Z,1014.01
2022-09-12T06:20:35.592Z,1014.03
2022-09-12T06:24:35.172Z,1013.92
2022-09-12T06:28:35.308Z,1013.78
2022-09-12T06:32:35.356Z,1013.87
2022-09-12T06:36:35.387Z,1013.9
2022-09-12T06:40:36.634Z,1013.87
2022-09-12T06:44:35.675Z,1013.86
2022-09-12T06:48:39.618Z,1013.98
2022-09-12T06:52:35.527Z,1014.08
2022-09-12T06:56:35.488Z,1014.07
2022-09-12T07:00:39.059Z,1014.1
2022-09-12T07:04:35.770Z,1014.21
2022-09-12T07:08:35.120Z,1014.03
2022-09-12T07:12:35.584Z,1014.12
2022-09-12T07:16:42.114Z,1014.11
2022-09-12T07:20:35.472Z,1014.01
2022-09-12T07:24:35.859Z,1014.03
2022-09-12T07:28:35.652Z,1014.07
2022-09-12T07:32:35.071Z,1014.03
2022-09-12T07:36:35.092Z,1014.02
2022-09-12T07:40:35.774Z,1014.06
2022-09-12T07:44:34.975Z,1013.99
2022-09-12T07:48:35.851Z,1014.07
2022-09-12T07:52:35.714Z,1014.08
2022-09-12T07:56:41.891Z,1013.93
2022-09-12T08:00:38.207Z,1013.97
2022-09-12T08:04:35.771Z,1013.92
2022-09-12T08:08:35.965Z,1013.99
2022-09-12T08:12:35.045Z,1014.07
2022-09-12T08:16:35.613Z,1014.04
2022-09-12T08:20:39.690Z,1014.07
2022-09-12T08:24:35.617Z,1014.11
2022-09-12T08:28:34.993Z,1014.21
2022-09-12T08:32:35.688Z,1013.98
2022-09-12T08:36:35.717Z,1014.08
2022-09-12T08:40:36.179Z,1013.99
2022-09-12T08:44:35.434Z,1014.15
2022-09-12T08:48:35.801Z,1014.13
2022-09-12T08:52:35.828Z,1014.1
2022-09-12T08:56:40.930Z,1013.98
2022-09-12T09:00:38.695Z,1014.02
2022-09-12T09:04:39.960Z,1013.95
2022-09-12T09:08:35.579Z,1013.9
2022-09-12T09:12:35.268Z,1014.03
2022-09-12T09:16:35.302Z,1013.98
2022-09-12T09:20:35.947Z,1013.86
2022-09-12T09:24:35.982Z,1013.85
2022-09-12T09:28:35.646Z,1013.61
2022-09-12T09:32:35.011Z,1013.63
2022-09-12T09:36:35.917Z,1013.62
2022-09-12T09:40:35.915Z,1013.66
2022-09-12T09:44:35.259Z,1013.48
2022-09-12T09:48:35.984Z,1013.54
2022-09-12T09:52:35.628Z,1013.35
2022-09-12T09:56:35.325Z,1013.47
2022-09-12T10:00:37.988Z,1013.34
2022-09-12T10:04:39.357Z,1013.39
2022-09-12T10:08:35.443Z,1013.36
2022-09-12T10:12:36.154Z,1013.36
2022-09-12T10:16:35.291Z,1013.32
2022-09-12T10:20:55.516Z,1013.09
2022-09-12T10:24:35.982Z,1013.31
2022-09-12T10:28:35.671Z,1013.29
2022-09-12T10:32:42.042Z,1013.23
2022-09-12T10:36:35.562Z,1013.18
2022-09-12T10:40:35.667Z,1013.27
2022-09-12T10:44:35.135Z,1013.23
2022-09-12T10:48:41.410Z,1013.25
2022-09-12T10:52:35.503Z,1013.22
2022-09-12T10:56:35.366Z,1013.17
2022-09-12T11:00:38.799Z,1013.14
2022-09-12T11:04:35.927Z,1013.08
2022-09-12T11:08:35.885Z,1013.06
2022-09-12T11:12:35.446Z,1013.08
2022-09-12T11:16:35.631Z,1013.04
2022-09-12T11:20:35.723Z,1013.18
2022-09-12T11:24:35.340Z,1013.02
2022-09-12T11:28:35.069Z,1012.99
2022-09-12T11:32:35.025Z,1013.05
2022-09-12T11:36:35.798Z,1012.94
2022-09-12T11:40:35.900Z,1012.96
2022-09-12T11:44:37.704Z,1012.94
2022-09-12T11:48:35.781Z,1012.85
2022-09-12T11:52:35.753Z,1012.83
2022-09-12T11:56:35.678Z,1012.89
2022-09-12T12:00:40.526Z,1012.81
2022-09-12T12:04:35.487Z,1012.83
2022-09-12T12:08:35.856Z,1012.7
2022-09-12T12:12:35.276Z,1012.66
2022-09-12T12:16:36.164Z,1012.7
2022-09-12T12:20:41.390Z,1012.63
2022-09-12T12:24:35.959Z,1012.66
2022-09-12T12:28:35.827Z,1012.57
2022-09-12T12:32:35.536Z,1012.41
2022-09-12T12:36:35.406Z,1012.45
2022-09-12T12:40:35.717Z,1012.45
2022-09-12T12:44:35.938Z,1012.35
2022-09-12T12:48:41.353Z,1012.43
2022-09-12T12:52:35.573Z,1012.37
2022-09-12T12:56:35.550Z,1012.4
2022-09-12T13:00:39.959Z,1012.25
2022-09-12T13:04:35.659Z,1012.31
2022-09-12T13:08:35.766Z,1012.32
2022-09-12T13:12:35.702Z,1012.24
2022-09-12T13:16:36.065Z,1012.15
2022-09-12T13:21:01.394Z,1012.09
2022-09-12T13:24:35.414Z,1012.04
2022-09-12T13:28:35.321Z,1012
2022-09-12T13:32:35.934Z,1011.87
2022-09-12T13:36:35.679Z,1011.95
2022-09-12T13:40:35.988Z,1011.94
2022-09-12T13:44:35.513Z,1011.86
2022-09-12T13:48:35.858Z,1011.83
2022-09-12T13:52:35.281Z,1011.72
2022-09-12T13:56:35.345Z,1011.73
2022-09-12T14:00:38.370Z,1011.72
2022-09-12T14:04:35.612Z,1011.61
2022-09-12T14:08:35.763Z,1011.63
2022-09-12T14:12:35.667Z,1011.71
2022-09-12T14:16:35.852Z,1011.66
2022-09-12T14:20:35.400Z,1011.71
2022-09-12T14:24:35.181Z,1011.67
2022-09-12T14:28:35.499Z,1011.61
2022-09-12T14:32:35.705Z,1011.67
2022-09-12T14:36:35.557Z,1011.51
2022-09-12T14:40:35.613Z,1011.48
2022-09-12T14:44:35.408Z,1011.45
2022-09-12T14:48:35.893Z,1011.35
2022-09-12T14:52:35.406Z,1011.43
2022-09-12T14:56:35.707Z,1011.37
2022-09-12T15:00:35.448Z,1011.4
2022-09-12T15:04:35.968Z,1011.35
2022-09-12T15:08:35.376Z,1011.41
2022-09-12T15:12:35.268Z,1011.3
2022-09-12T15:16:35.313Z,1011.33
2022-09-12T15:20:35.230Z,1011.27
2022-09-12T15:24:35.752Z,1011.33
2022-09-12T15:28:35.872Z,1011.3
2022-09-12T15:32:35.221Z,1011.16
2022-09-12T15:36:35.489Z,1011.11
2022-09-12T15:40:36.288Z,1011.23
2022-09-12T15:44:35.864Z,1011.28
2022-09-12T15:48:36.068Z,1011.26
2022-09-12T15:52:35.404Z,1011.09
2022-09-12T15:56:35.666Z,1011.08
2022-09-12T16:00:40.184Z,1011.04
2022-09-12T16:04:35.435Z,1010.81
2022-09-12T16:08:36.034Z,1010.8
2022-09-12T16:12:35.468Z,1010.76
2022-09-12T16:16:35.603Z,1010.56
2022-09-12T16:20:35.516Z,1010.47
2022-09-12T16:24:35.034Z,1010.49
2022-09-12T16:28:35.802Z,1010.42
2022-09-12T16:32:35.658Z,1010.52
2022-09-12T16:36:35.701Z,1010.47
2022-09-12T16:40:35.873Z,1010.55
2022-09-12T16:44:35.477Z,1010.46
2022-09-12T16:48:35.901Z,1010.51
2022-09-12T16:52:35.875Z,1010.33
2022-09-12T16:56:35.517Z,1010.5
2022-09-12T17:00:39.754Z,1010.39
2022-09-12T17:04:35.479Z,1010.4
2022-09-12T17:08:35.596Z,1010.44
2022-09-12T17:12:35.487Z,1010.3
2022-09-12T17:16:36.063Z,1010.31
2022-09-12T17:20:35.464Z,1010.33
2022-09-12T17:24:35.517Z,1010.35
2022-09-12T17:28:35.801Z,1010.25
2022-09-12T17:32:40.088Z,1010.28
2022-09-12T17:36:35.529Z,1010.34
2022-09-12T17:41:07.226Z,1010.15
2022-09-12T17:44:35.731Z,1010.15
2022-09-12T17:48:35.008Z,1010.21
2022-09-12T17:52:35.694Z,1010.38
2022-09-12T17:56:35.284Z,1010.35
2022-09-12T18:00:38.767Z,1010.29
2022-09-12T18:04:35.675Z,1010.2
2022-09-12T18:08:35.753Z,1010.15
2022-09-12T18:12:35.577Z,1010.05
2022-09-12T18:16:35.869Z,1009.97
2022-09-12T18:20:35.192Z,1009.99
2022-09-12T18:24:35.581Z,1010.12
2022-09-12T18:28:41.066Z,1010.14
2022-09-12T18:32:34.971Z,1009.84
2022-09-12T18:36:35.586Z,1009.85
2022-09-12T18:40:35.853Z,1009.74
2022-09-12T18:44:35.054Z,1009.89
2022-09-12T18:48:35.957Z,1009.93
2022-09-12T18:52:35.453Z,1009.88
2022-09-12T18:56:35.008Z,1010.01
2022-09-12T19:00:46.097Z,1010.02
2022-09-12T19:04:35.230Z,1010.18
2022-09-12T19:08:35.385Z,1010.21
2022-09-12T19:12:35.391Z,1010.2
2022-09-12T19:16:35.500Z,1010.25
2022-09-12T19:20:35.755Z,1010.29
2022-09-12T19:24:35.692Z,1010.17
2022-09-12T19:28:35.615Z,1010.08
2022-09-12T19:32:35.682Z,1010.08
2022-09-12T19:37:03.575Z,1009.94
2022-09-12T19:40:36.062Z,1009.99
2022-09-12T19:44:35.890Z,1009.95
2022-09-12T19:48:35.518Z,1009.86
2022-09-12T19:52:40.023Z,1009.81
2022-09-12T19:56:35.294Z,1009.93
2022-09-12T20:00:37.009Z,1009.89
2022-09-12T20:04:35.771Z,1009.97
2022-09-12T20:08:35.667Z,1009.9
2022-09-12T20:12:35.900Z,1009.89
2022-09-12T20:16:35.159Z,1009.84
2022-09-12T20:20:35.553Z,1009.98
2022-09-12T20:24:35.693Z,1009.96
2022-09-12T20:28:35.613Z,1009.92
2022-09-12T20:32:35.396Z,1009.74
2022-09-12T20:36:35.614Z,1009.69
2022-09-12T20:40:35.437Z,1009.68
2022-09-12T20:44:35.094Z,1009.77
2022-09-12T20:48:35.117Z,1009.71
2022-09-12T20:52:35.457Z,1009.65
2022-09-12T20:56:35.718Z,1009.69
2022-09-12T21:00:35.227Z,1009.7
2022-09-12T21:04:37.862Z,1009.65
2022-09-12T21:08:35.273Z,1009.65
2022-09-12T21:12:35.428Z,1009.73
2022-09-12T21:16:36.207Z,1009.76
2022-09-12T21:20:35.868Z,1009.69
2022-09-12T21:24:35.600Z,1009.73
2022-09-12T21:28:35.889Z,1009.74
2022-09-12T21:32:36.989Z,1009.78
2022-09-12T21:36:35.605Z,1009.75
2022-09-12T21:40:35.504Z,1009.79
2022-09-12T21:44:35.092Z,1009.88
2022-09-12T21:48:35.156Z,1009.86
2022-09-12T21:52:35.073Z,1009.91
2022-09-12T21:56:35.775Z,1009.87
2022-09-12T22:00:45.095Z,1009.72
2022-09-12T22:04:35.476Z,1009.6
2022-09-12T22:08:35.047Z,1009.69
2022-09-12T22:12:35.166Z,1009.68
2022-09-12T22:16:36.325Z,1009.6
2022-09-12T22:20:35.283Z,1009.57
2022-09-12T22:24:35.158Z,1009.57
2022-09-12T22:28:35.888Z,1009.54
2022-09-12T22:32:35.880Z,1009.45
2022-09-12T22:36:41.817Z,1009.25
2022-09-12T22:40:35.995Z,1009.29
2022-09-12T22:44:35.872Z,1009.18
2022-09-12T22:48:41.120Z,1009.12
2022-09-12T22:52:35.569Z,1009.11
2022-09-12T22:56:35.899Z,1009.11
2022-09-12T23:00:38.021Z,1009.21
2022-09-12T23:04:35.399Z,1009.13
2022-09-12T23:08:35.712Z,1009.16
2022-09-12T23:12:35.652Z,1009.16
2022-09-12T23:16:36.305Z,1009.11
2022-09-12T23:20:35.784Z,1009.24
2022-09-12T23:24:35.388Z,1009.04
2022-09-12T23:28:35.126Z,1009.04
2022-09-12T23:32:35.191Z,1008.92
2022-09-12T23:36:35.547Z,1008.98
2022-09-12T23:40:36.397Z,1009.04
2022-09-12T23:44:35.048Z,1008.91
2022-09-12T23:48:35.797Z,1009.06
2022-09-12T23:52:35.738Z,1008.85
2022-09-12T23:56:35.387Z,1008.85
